createdAt,value
2023-03-25T00:00:00.175Z,100.00
2023-03-25T00:02:30.356Z,100.00
2023-03-25T00:05:00.861Z,100.00
2023-03-25T00:07:28.880Z,100.00
2023-03-25T00:09:56.809Z,100.00
2023-03-25T00:12:26.553Z,100.00
2023-03-25T00:14:55.542Z,100.00
2023-03-25T00:17:23.930Z,100.00
2023-03-25T00:19:52.186Z,100.00
2023-03-25T00:22:20.840Z,100.00
2023-03-25T00:24:49.292Z,100.00
2023-03-25T00:27:17.720Z,100.00
2023-03-25T00:29:47.822Z,100.00
2023-03-25T00:32:18.733Z,100.00
2023-03-25T00:34:48.216Z,100.00
2023-03-25T00:37:18.307Z,100.00
2023-03-25T00:39:46.995Z,100.00
2023-03-25T00:42:17.447Z,100.00
2023-03-25T00:44:46.733Z,100.00
2023-03-25T00:47:18.830Z,100.00
2023-03-25T00:49:46.795Z,100.00
2023-03-25T00:52:15.929Z,100.00
2023-03-25T00:54:46.030Z,100.00
2023-03-25T00:57:14.214Z,100.00
2023-03-25T00:59:42.095Z,100.00
2023-03-25T01:02:11.752Z,100.00
2023-03-25T01:04:42.401Z,100.00
2023-03-25T01:07:11.079Z,100.00
2023-03-25T01:09:41.690Z,100.00
2023-03-25T01:12:09.900Z,100.00
2023-03-25T01:14:37.781Z,100.00
2023-03-25T01:17:06.628Z,100.00
2023-03-25T01:19:35.903Z,100.00
2023-03-25T01:22:04.275Z,100.00
2023-03-25T01:24:32.695Z,100.00
2023-03-25T01:27:01.213Z,100.00
2023-03-25T01:29:29.088Z,100.00
2023-03-25T01:31:57.685Z,100.00
2023-03-25T01:34:26.217Z,100.00
2023-03-25T01:36:56.478Z,100.00
2023-03-25T01:39:24.451Z,100.00
2023-03-25T01:41:55.277Z,100.00
2023-03-25T01:45:00.749Z,100.00
2023-03-25T01:47:28.988Z,100.00
2023-03-25T01:49:57.066Z,100.00
2023-03-25T01:52:29.828Z,100.00
2023-03-25T01:55:00.350Z,100.00
2023-03-25T01:57:31.653Z,100.00
2023-03-25T01:59:59.655Z,100.00
2023-03-25T02:02:35.100Z,100.00
2023-03-25T02:05:10.603Z,100.00
2023-03-25T02:07:46.911Z,100.00
2023-03-25T02:10:15.447Z,100.00
2023-03-25T02:12:45.687Z,100.00
2023-03-25T02:15:16.195Z,100.00
2023-03-25T02:18:10.228Z,100.00
2023-03-25T02:21:18.374Z,100.00
2023-03-25T02:24:03.233Z,100.00
2023-03-25T02:27:14.525Z,100.00
2023-03-25T02:30:16.728Z,100.00
2023-03-25T02:33:03.905Z,100.00
2023-03-25T02:35:50.174Z,100.00
2023-03-25T02:38:32.506Z,100.00
2023-03-25T02:41:06.487Z,100.00
2023-03-25T02:43:40.158Z,100.00
2023-03-25T02:46:13.225Z,100.00
2023-03-25T02:48:49.625Z,100.00
2023-03-25T02:51:22.535Z,100.00
2023-03-25T02:53:53.692Z,100.00
2023-03-25T02:56:25.724Z,100.00
2023-03-25T02:58:56.553Z,100.00
2023-03-25T03:01:27.189Z,100.00
2023-03-25T03:03:55.560Z,100.00
2023-03-25T03:06:25.477Z,100.00
2023-03-25T03:09:09.685Z,100.00
2023-03-25T03:11:46.669Z,100.00
2023-03-25T03:14:29.465Z,100.00
2023-03-25T03:17:08.426Z,100.00
2023-03-25T03:19:41.690Z,100.00
2023-03-25T03:22:22.373Z,100.00
2023-03-25T03:24:56.295Z,100.00
2023-03-25T03:27:34.101Z,100.00
2023-03-25T03:30:09.340Z,100.00
2023-03-25T03:32:45.828Z,100.00
2023-03-25T03:35:18.542Z,100.00
2023-03-25T03:37:51.400Z,100.00
2023-03-25T03:40:24.379Z,100.00
2023-03-25T03:42:57.567Z,100.00
2023-03-25T03:45:32.576Z,100.00
2023-03-25T03:48:03.681Z,100.00
2023-03-25T03:50:36.722Z,100.00
2023-03-25T03:53:09.353Z,100.00
2023-03-25T03:55:42.678Z,100.00
2023-03-25T03:58:16.414Z,100.00
2023-03-25T04:00:52.778Z,100.00
2023-03-25T04:03:28.497Z,100.00
2023-03-25T04:06:06.702Z,100.00
2023-03-25T04:08:42.911Z,100.00
2023-03-25T04:11:20.930Z,100.00
2023-03-25T04:13:53.371Z,100.00
2023-03-25T04:16:21.309Z,100.00
2023-03-25T04:18:49.177Z,100.00
2023-03-25T04:21:17.705Z,100.00
2023-03-25T04:23:46.267Z,100.00
2023-03-25T04:26:15.661Z,100.00
2023-03-25T04:28:44.725Z,100.00
2023-03-25T04:31:16.201Z,100.00
2023-03-25T04:33:48.673Z,100.00
2023-03-25T04:36:18.335Z,100.00
2023-03-25T04:38:46.848Z,100.00
2023-03-25T04:41:17.567Z,100.00
2023-03-25T04:43:45.625Z,100.00
2023-03-25T04:46:15.842Z,100.00
2023-03-25T04:48:45.270Z,100.00
2023-03-25T04:51:13.938Z,100.00
2023-03-25T04:53:42.974Z,100.00
2023-03-25T04:56:16.401Z,100.00
2023-03-25T04:58:46.703Z,100.00
2023-03-25T05:01:23.391Z,100.00
2023-03-25T05:03:51.688Z,100.00
2023-03-25T05:06:19.609Z,100.00
2023-03-25T05:08:47.599Z,100.00
2023-03-25T05:11:15.612Z,100.00
2023-03-25T05:13:43.451Z,100.00
2023-03-25T05:16:12.843Z,100.00
2023-03-25T05:18:40.942Z,100.00
2023-03-25T05:21:09.036Z,100.00
2023-03-25T05:23:36.943Z,100.00
2023-03-25T05:26:06.264Z,100.00
2023-03-25T05:28:34.204Z,100.00
2023-03-25T05:31:08.337Z,100.00
2023-03-25T05:33:42.874Z,100.00
2023-03-25T05:36:12.116Z,100.00
2023-03-25T05:38:41.946Z,100.00
2023-03-25T05:41:12.195Z,100.00
2023-03-25T05:43:40.101Z,100.00
2023-03-25T05:46:08.402Z,100.00
2023-03-25T05:48:37.739Z,100.00
2023-03-25T05:51:13.683Z,100.00
2023-03-25T05:53:43.699Z,100.00
2023-03-25T05:56:12.391Z,100.00
2023-03-25T05:58:40.528Z,100.00
2023-03-25T06:01:17.041Z,100.00
2023-03-25T06:03:55.192Z,100.00
2023-03-25T06:06:25.949Z,100.00
2023-03-25T06:08:54.074Z,100.00
2023-03-25T06:11:22.000Z,100.00
2023-03-25T06:13:50.848Z,100.00
2023-03-25T06:16:21.470Z,100.00
2023-03-25T06:18:56.258Z,100.00
2023-03-25T06:21:26.595Z,100.00
2023-03-25T06:23:55.210Z,100.00
2023-03-25T06:26:24.561Z,100.00
2023-03-25T06:28:52.525Z,100.00
2023-03-25T06:31:22.805Z,100.00
2023-03-25T06:33:51.792Z,100.00
2023-03-25T06:36:20.608Z,100.00
2023-03-25T06:38:51.824Z,100.00
2023-03-25T06:41:21.051Z,100.00
2023-03-25T06:43:49.274Z,100.00
2023-03-25T06:46:18.024Z,100.00
2023-03-25T06:48:45.967Z,100.00
2023-03-25T06:51:14.059Z,100.00
2023-03-25T06:53:41.990Z,100.00
2023-03-25T06:56:11.688Z,100.00
2023-03-25T06:58:41.603Z,100.00
2023-03-25T07:01:09.458Z,100.00
2023-03-25T07:03:38.685Z,100.00
2023-03-25T07:06:07.686Z,100.00
2023-03-25T07:08:36.178Z,100.00
2023-03-25T07:11:05.268Z,100.00
2023-03-25T07:13:34.974Z,100.00
2023-03-25T07:16:03.340Z,100.00
2023-03-25T07:18:31.867Z,100.00
2023-03-25T07:21:00.410Z,100.00
2023-03-25T07:23:28.577Z,100.00
2023-03-25T07:25:57.015Z,100.00
2023-03-25T07:28:25.080Z,100.00
2023-03-25T07:30:54.325Z,100.00
2023-03-25T07:33:22.333Z,100.00
2023-03-25T07:35:50.618Z,100.00
2023-03-25T07:38:18.648Z,100.00
2023-03-25T07:40:50.358Z,100.00
2023-03-25T07:43:18.627Z,100.00
2023-03-25T07:45:46.468Z,100.00
2023-03-25T07:48:18.554Z,100.00
2023-03-25T07:50:49.398Z,100.00
2023-03-25T07:53:17.579Z,99.64
2023-03-25T07:55:46.521Z,100.00
2023-03-25T07:58:14.594Z,99.49
2023-03-25T08:00:42.588Z,98.95
2023-03-25T08:03:11.857Z,98.88
2023-03-25T08:05:46.687Z,98.80
2023-03-25T08:08:14.809Z,98.63
2023-03-25T08:10:44.078Z,98.79
2023-03-25T08:13:12.242Z,98.21
2023-03-25T08:15:40.364Z,98.17
2023-03-25T08:18:08.640Z,98.64
2023-03-25T08:20:37.030Z,99.00
2023-03-25T08:23:10.520Z,98.64
2023-03-25T08:25:38.965Z,98.70
2023-03-25T08:28:07.153Z,98.17
2023-03-25T08:30:39.941Z,98.45
2023-03-25T08:33:08.624Z,97.73
2023-03-25T08:35:37.757Z,97.78
2023-03-25T08:38:07.174Z,97.12
2023-03-25T08:40:35.978Z,97.60
2023-03-25T08:43:06.236Z,97.48
2023-03-25T08:45:35.087Z,97.50
2023-03-25T08:48:03.325Z,97.05
2023-03-25T08:50:31.561Z,97.15
2023-03-25T08:52:59.579Z,97.53
2023-03-25T08:55:28.858Z,97.75
2023-03-25T08:57:56.658Z,97.63
2023-03-25T09:00:26.574Z,97.64
2023-03-25T09:02:54.731Z,97.04
2023-03-25T09:05:22.740Z,97.59
2023-03-25T09:07:50.718Z,98.03
2023-03-25T09:10:18.682Z,98.00
2023-03-25T09:12:47.907Z,97.71
2023-03-25T09:15:15.864Z,97.93
2023-03-25T09:17:43.910Z,98.33
2023-03-25T09:20:12.506Z,98.58
2023-03-25T09:22:41.014Z,98.95
2023-03-25T09:25:10.152Z,98.45
2023-03-25T09:27:38.273Z,98.33
2023-03-25T09:30:09.809Z,98.80
2023-03-25T09:32:38.397Z,98.32
2023-03-25T09:35:07.087Z,98.70
2023-03-25T09:37:35.482Z,98.85
2023-03-25T09:40:07.330Z,98.87
2023-03-25T09:42:46.248Z,98.67
2023-03-25T09:45:28.863Z,98.66
2023-03-25T09:48:03.258Z,98.18
2023-03-25T09:50:33.114Z,98.14
2023-03-25T09:53:06.237Z,98.35
2023-03-25T09:55:40.559Z,98.23
2023-03-25T09:58:36.679Z,98.69
2023-03-25T10:01:20.294Z,98.32
2023-03-25T10:04:06.282Z,98.03
2023-03-25T10:06:40.215Z,98.64
2023-03-25T10:09:32.799Z,98.59
2023-03-25T10:12:12.567Z,98.83
2023-03-25T10:15:00.983Z,98.57
2023-03-25T10:17:43.339Z,98.43
2023-03-25T10:20:19.991Z,98.34
2023-03-25T10:23:02.075Z,98.74
2023-03-25T10:25:34.775Z,98.73
2023-03-25T10:28:05.719Z,98.58
2023-03-25T10:30:37.354Z,98.94
2023-03-25T10:33:16.846Z,98.71
2023-03-25T10:35:49.375Z,98.73
2023-03-25T10:38:20.890Z,98.83
2023-03-25T10:40:53.147Z,98.90
2023-03-25T10:43:28.324Z,98.75
2023-03-25T10:46:01.794Z,99.14
2023-03-25T10:48:32.648Z,99.45
2023-03-25T10:51:07.015Z,100.00
2023-03-25T10:53:35.677Z,99.46
2023-03-25T10:56:08.793Z,99.35
2023-03-25T10:58:39.386Z,100.00
2023-03-25T11:01:12.753Z,100.00
2023-03-25T11:03:45.064Z,100.00
2023-03-25T11:06:23.670Z,100.00
2023-03-25T11:08:59.294Z,100.00
2023-03-25T11:11:33.615Z,100.00
2023-03-25T11:14:02.507Z,99.93
2023-03-25T11:16:35.063Z,100.00
2023-03-25T11:19:05.929Z,100.00
2023-03-25T11:21:36.534Z,99.95
2023-03-25T11:24:08.137Z,100.00
2023-03-25T11:26:39.886Z,100.00
2023-03-25T11:29:14.462Z,100.00
2023-03-25T11:31:43.959Z,100.00
2023-03-25T11:34:20.554Z,100.00
2023-03-25T11:36:56.406Z,100.00
2023-03-25T11:39:30.752Z,100.00
2023-03-25T11:41:59.761Z,100.00
2023-03-25T11:44:30.197Z,100.00
2023-03-25T11:47:04.191Z,100.00
2023-03-25T11:49:37.328Z,100.00
2023-03-25T11:52:09.389Z,100.00
2023-03-25T11:54:38.667Z,100.00
2023-03-25T11:57:12.388Z,100.00
2023-03-25T11:59:45.632Z,100.00
2023-03-25T12:02:24.738Z,100.00
2023-03-25T12:04:59.615Z,100.00
2023-03-25T12:07:27.642Z,100.00
2023-03-25T12:09:57.316Z,100.00
2023-03-25T12:12:44.597Z,100.00
2023-03-25T12:15:22.526Z,100.00
2023-03-25T12:18:05.626Z,100.00
2023-03-25T12:20:44.005Z,100.00
2023-03-25T12:23:21.798Z,100.00
2023-03-25T12:25:58.905Z,100.00
2023-03-25T12:28:47.661Z,100.00
2023-03-25T12:31:29.507Z,100.00
2023-03-25T12:34:10.436Z,100.00
2023-03-25T12:36:51.549Z,100.00
2023-03-25T12:39:42.780Z,100.00
2023-03-25T12:42:25.714Z,100.00
2023-03-25T12:45:18.147Z,100.00
2023-03-25T12:47:56.518Z,100.00
2023-03-25T12:50:37.587Z,100.00
2023-03-25T12:53:23.387Z,100.00
2023-03-25T12:56:06.171Z,100.00
2023-03-25T12:59:03.737Z,100.00
2023-03-25T13:01:40.569Z,100.00
2023-03-25T13:04:28.410Z,100.00
2023-03-25T13:07:02.125Z,100.00
2023-03-25T13:09:36.131Z,100.00
2023-03-25T13:12:11.667Z,100.00
2023-03-25T13:14:46.000Z,100.00
2023-03-25T13:17:22.461Z,100.00
2023-03-25T13:20:04.190Z,100.00
2023-03-25T13:22:36.581Z,100.00
2023-03-25T13:25:08.346Z,100.00
2023-03-25T13:27:42.720Z,100.00
2023-03-25T13:30:21.234Z,100.00
2023-03-25T13:32:55.009Z,100.00
2023-03-25T13:35:35.272Z,100.00
2023-03-25T13:38:08.183Z,100.00
2023-03-25T13:40:44.535Z,100.00
2023-03-25T13:43:22.785Z,100.00
2023-03-25T13:45:56.259Z,100.00
2023-03-25T13:48:28.876Z,100.00
2023-03-25T13:50:58.980Z,100.00
2023-03-25T13:53:33.232Z,100.00
2023-03-25T13:56:27.589Z,100.00
2023-03-25T13:59:15.161Z,100.00
2023-03-25T14:02:11.053Z,100.00
2023-03-25T14:04:59.142Z,100.00
2023-03-25T14:08:01.807Z,100.00
2023-03-25T14:10:40.552Z,100.00
2023-03-25T14:13:15.078Z,100.00
2023-03-25T14:15:53.459Z,100.00
2023-03-25T14:18:22.533Z,100.00
2023-03-25T14:20:51.638Z,100.00
2023-03-25T14:23:23.278Z,100.00
2023-03-25T14:25:55.930Z,100.00
2023-03-25T14:28:37.611Z,100.00
2023-03-25T14:31:30.385Z,100.00
2023-03-25T14:34:23.428Z,100.00
2023-03-25T14:37:30.594Z,100.00
2023-03-25T14:40:00.929Z,100.00
2023-03-25T14:42:45.110Z,100.00
2023-03-25T14:45:42.384Z,100.00
2023-03-25T14:48:26.427Z,100.00
2023-03-25T14:51:20.954Z,100.00
2023-03-25T14:53:56.378Z,100.00
2023-03-25T14:56:27.544Z,99.90
2023-03-25T14:58:58.374Z,100.00
2023-03-25T15:01:32.829Z,99.99
2023-03-25T15:04:14.440Z,100.00
2023-03-25T15:06:44.675Z,100.00
2023-03-25T15:09:16.514Z,100.00
2023-03-25T15:11:46.575Z,100.00
2023-03-25T15:14:18.032Z,100.00
2023-03-25T15:17:01.478Z,100.00
2023-03-25T15:19:30.050Z,100.00
2023-03-25T15:22:19.466Z,99.89
2023-03-25T15:24:57.091Z,99.94
2023-03-25T15:27:54.982Z,100.00
2023-03-25T15:30:41.776Z,100.00
2023-03-25T15:33:24.811Z,100.00
2023-03-25T15:36:01.854Z,99.70
2023-03-25T15:38:44.521Z,99.76
2023-03-25T15:41:27.453Z,99.80
2023-03-25T15:44:24.429Z,99.37
2023-03-25T15:47:13.500Z,100.00
2023-03-25T15:50:07.878Z,99.71
2023-03-25T15:52:56.826Z,99.25
2023-03-25T15:55:29.991Z,99.77
2023-03-25T15:58:06.739Z,100.00
2023-03-25T16:00:43.286Z,99.71
2023-03-25T16:03:16.499Z,99.35
2023-03-25T16:05:54.189Z,99.90
2023-03-25T16:08:32.892Z,99.99
2023-03-25T16:11:15.776Z,99.78
2023-03-25T16:13:43.935Z,100.00
2023-03-25T16:16:17.696Z,99.96
2023-03-25T16:18:50.542Z,100.00
2023-03-25T16:21:25.544Z,99.75
2023-03-25T16:24:04.909Z,99.90
2023-03-25T16:26:39.465Z,100.00
2023-03-25T16:29:11.683Z,100.00
2023-03-25T16:31:43.846Z,99.73
2023-03-25T16:34:17.572Z,100.00
2023-03-25T16:36:49.063Z,100.00
2023-03-25T16:39:18.272Z,100.00
2023-03-25T16:41:47.506Z,99.60
2023-03-25T16:44:21.240Z,100.00
2023-03-25T16:46:50.384Z,100.00
2023-03-25T16:49:26.416Z,100.00
2023-03-25T16:51:56.381Z,100.00
2023-03-25T16:54:32.497Z,100.00
2023-03-25T16:57:02.126Z,100.00
2023-03-25T16:59:34.039Z,100.00
2023-03-25T17:02:03.617Z,100.00
2023-03-25T17:04:42.263Z,100.00
2023-03-25T17:07:18.311Z,100.00
2023-03-25T17:09:51.730Z,100.00
2023-03-25T17:12:22.350Z,100.00
2023-03-25T17:14:53.838Z,100.00
2023-03-25T17:17:37.572Z,100.00
2023-03-25T17:20:09.329Z,100.00
2023-03-25T17:22:40.438Z,100.00
2023-03-25T17:25:18.887Z,100.00
2023-03-25T17:27:49.221Z,100.00
2023-03-25T17:30:20.967Z,100.00
2023-03-25T17:32:49.476Z,100.00
2023-03-25T17:35:21.820Z,100.00
2023-03-25T17:37:51.873Z,100.00
2023-03-25T17:40:23.521Z,100.00
2023-03-25T17:42:51.499Z,100.00
2023-03-25T17:45:19.968Z,100.00
2023-03-25T17:47:47.985Z,100.00
2023-03-25T17:50:17.658Z,100.00
2023-03-25T17:52:45.748Z,100.00
2023-03-25T17:55:15.357Z,100.00
2023-03-25T17:57:43.502Z,100.00
2023-03-25T18:00:18.665Z,100.00
2023-03-25T18:02:47.887Z,100.00
2023-03-25T18:05:16.164Z,100.00
2023-03-25T18:07:44.476Z,100.00
2023-03-25T18:10:19.789Z,99.80
2023-03-25T18:12:47.994Z,99.71
2023-03-25T18:15:16.059Z,100.00
2023-03-25T18:17:44.169Z,99.85
2023-03-25T18:20:17.023Z,99.83
2023-03-25T18:22:45.359Z,99.72
2023-03-25T18:25:14.032Z,99.08
2023-03-25T18:27:44.413Z,99.73
2023-03-25T18:30:21.263Z,99.55
2023-03-25T18:32:49.583Z,99.59
2023-03-25T18:35:18.424Z,98.92
2023-03-25T18:37:48.634Z,99.22
2023-03-25T18:40:23.539Z,99.31
2023-03-25T18:42:53.219Z,99.70
2023-03-25T18:45:22.338Z,99.34
2023-03-25T18:47:50.617Z,99.08
2023-03-25T18:50:24.964Z,99.14
2023-03-25T18:52:52.963Z,98.58
2023-03-25T18:55:20.935Z,98.65
2023-03-25T18:57:48.779Z,98.82
2023-03-25T19:00:23.989Z,98.89
2023-03-25T19:02:53.065Z,98.94
2023-03-25T19:05:21.630Z,98.94
2023-03-25T19:07:50.356Z,98.55
2023-03-25T19:10:21.623Z,99.02
2023-03-25T19:12:49.911Z,98.50
2023-03-25T19:15:21.043Z,98.81
2023-03-25T19:17:50.038Z,98.78
2023-03-25T19:20:20.845Z,98.49
2023-03-25T19:22:49.512Z,98.73
2023-03-25T19:25:18.770Z,98.31
2023-03-25T19:27:47.696Z,98.84
2023-03-25T19:30:17.906Z,98.81
2023-03-25T19:32:48.074Z,98.49
2023-03-25T19:35:17.943Z,98.60
2023-03-25T19:37:50.977Z,98.99
2023-03-25T19:40:22.114Z,98.80
2023-03-25T19:42:51.460Z,98.90
2023-03-25T19:45:20.522Z,98.58
2023-03-25T19:47:52.422Z,98.96
2023-03-25T19:50:21.966Z,98.98
2023-03-25T19:52:51.683Z,99.02
2023-03-25T19:55:21.256Z,98.84
2023-03-25T19:57:50.017Z,99.08
2023-03-25T20:00:20.630Z,99.02
2023-03-25T20:03:23.113Z,99.34
2023-03-25T20:06:03.513Z,98.93
2023-03-25T20:08:32.190Z,99.26
2023-03-25T20:11:01.158Z,98.82
2023-03-25T20:13:29.336Z,98.91
2023-03-25T20:15:57.264Z,99.04
2023-03-25T20:18:26.688Z,98.96
2023-03-25T20:20:54.515Z,98.99
2023-03-25T20:23:22.959Z,98.92
2023-03-25T20:25:52.549Z,98.51
2023-03-25T20:28:20.521Z,98.72
2023-03-25T20:30:48.592Z,98.59
2023-03-25T20:33:16.551Z,98.61
2023-03-25T20:35:45.963Z,97.92
2023-03-25T20:38:14.453Z,98.17
2023-03-25T20:40:45.013Z,98.18
2023-03-25T20:43:14.851Z,98.33
2023-03-25T20:45:43.876Z,98.19
2023-03-25T20:48:11.985Z,98.03
2023-03-25T20:50:40.476Z,98.21
2023-03-25T20:53:09.957Z,97.95
2023-03-25T20:55:37.862Z,98.18
2023-03-25T20:58:08.790Z,97.65
2023-03-25T21:00:37.562Z,97.48
2023-03-25T21:03:06.240Z,97.55
2023-03-25T21:05:34.420Z,97.47
2023-03-25T21:08:02.809Z,97.57
2023-03-25T21:10:32.052Z,97.54
2023-03-25T21:12:59.977Z,97.78
2023-03-25T21:15:28.898Z,97.91
2023-03-25T21:17:56.841Z,97.68
2023-03-25T21:20:27.958Z,97.61
2023-03-25T21:22:57.336Z,97.73
2023-03-25T21:25:25.295Z,97.76
2023-03-25T21:27:54.502Z,97.89
2023-03-25T21:30:22.731Z,97.66
2023-03-25T21:32:50.623Z,97.76
2023-03-25T21:35:18.590Z,97.86
2023-03-25T21:37:47.218Z,97.67
2023-03-25T21:40:15.372Z,97.68
2023-03-25T21:42:47.134Z,97.64
2023-03-25T21:45:18.251Z,97.91
2023-03-25T21:50:21.836Z,97.43
2023-03-25T21:52:49.781Z,97.89
2023-03-25T21:55:19.593Z,97.57
2023-03-25T21:58:05.548Z,97.71
2023-03-25T22:00:46.234Z,97.30
2023-03-25T22:03:17.369Z,97.42
2023-03-25T22:05:45.972Z,97.03
2023-03-25T22:08:26.292Z,97.21
2023-03-25T22:11:02.301Z,97.38
2023-03-25T22:13:30.562Z,97.33
2023-03-25T22:16:00.041Z,97.31
2023-03-25T22:18:29.107Z,97.14
2023-03-25T22:21:07.060Z,97.01
2023-03-25T22:23:35.159Z,96.97
2023-03-25T22:26:03.590Z,97.27
2023-03-25T22:28:31.691Z,96.98
2023-03-25T22:31:01.519Z,97.39
2023-03-25T22:33:30.731Z,96.98
2023-03-25T22:36:09.063Z,96.89
2023-03-25T22:38:37.108Z,97.25
2023-03-25T22:41:06.021Z,96.87
2023-03-25T22:43:39.087Z,96.86
2023-03-25T22:46:11.683Z,97.07
2023-03-25T22:48:40.245Z,96.80
2023-03-25T22:51:15.618Z,97.20
2023-03-25T22:53:43.901Z,97.13
2023-03-25T22:56:12.895Z,96.92
2023-03-25T22:58:41.502Z,96.94
2023-03-25T23:01:20.072Z,96.81
2023-03-25T23:03:48.534Z,96.89
2023-03-25T23:06:17.120Z,97.19
2023-03-25T23:08:45.322Z,96.86
2023-03-25T23:11:17.144Z,96.86
2023-03-25T23:13:48.079Z,96.51
2023-03-25T23:16:20.538Z,96.81
2023-03-25T23:18:49.202Z,96.76
2023-03-25T23:21:20.064Z,97.19
2023-03-25T23:23:52.198Z,97.22
2023-03-25T23:26:24.841Z,96.83
2023-03-25T23:28:54.697Z,96.71
2023-03-25T23:31:28.610Z,96.74
2023-03-25T23:33:58.472Z,96.89
2023-03-25T23:36:28.396Z,96.85
2023-03-25T23:38:56.855Z,96.90
2023-03-25T23:41:25.937Z,96.72
2023-03-25T23:43:55.977Z,96.88
2023-03-25T23:46:27.361Z,96.79
2023-03-25T23:48:55.950Z,96.65
2023-03-25T23:51:25.567Z,96.78
2023-03-25T23:53:53.956Z,96.55
2023-03-25T23:56:24.699Z,96.42
2023-03-25T23:58:53.243Z,96.66
